Kimberly Turecamo — WDC6838 — position and weather

sailwx.info

Track history (hours):
 
Tides and Currents Weather Stations Pressure Air Temp Water Temp Dewpoint Dewpoint Depression Visibility Wind Speed Wind Dir Waves Ship Positions

Kimberly Turecamo

Owner: Moran Towing Corporation, New Canaan, CT. More information available from US FCC via Universal Licensing System and Coast Guard Vessel Documentation Center.

Last reported at 2017-Feb-25 13:33 UTC. Time now 2017-Feb-25 13:48 UTC.
Position N 40°37' W 074°03'.

Length 138 m; draft 5 m.

Type: . MMSI: 367061980.

Date/timePositionNaut miles runAvg speedWind from/ knotsBaromVisibWave heightAir tempDewpointWater temp
2017-Feb-25 13:33N 40°37' W 074°03'0 0.0
2017-Feb-25 12:32N 40°37' W 074°03'0 0.0
2017-Feb-25 11:33N 40°37' W 074°03'0 0.0
2017-Feb-25 10:33N 40°37' W 074°03'1 0.6
2017-Feb-25 09:33N 40°37' W 074°03'2 1.9
2017-Feb-25 08:33N 40°39' W 074°02'0 0.0
2017-Feb-25 07:31N 40°39' W 074°02'0 0.0
2017-Feb-25 06:31N 40°39' W 074°02'0 0.0
2017-Feb-25 05:31N 40°39' W 074°02'0 0.0
2017-Feb-25 04:31N 40°39' W 074°02'0 0.0
2017-Feb-25 03:31N 40°39' W 074°02'0 0.0
2017-Feb-25 02:31N 40°39' W 074°02'0 0.1
2017-Feb-25 01:31N 40°39' W 074°02'0 0.1
2017-Feb-25 00:31N 40°39' W 074°02'0 0.0
2017-Feb-24 23:31N 40°39' W 074°02'0 0.0
2017-Feb-24 22:31N 40°39' W 074°02'0 0.0
2017-Feb-24 21:31N 40°39' W 074°02'0 0.2
2017-Feb-24 20:31N 40°39' W 074°02'0 0.0
2017-Feb-24 19:31N 40°39' W 074°02'0 0.0
2017-Feb-24 18:31N 40°39' W 074°02'1 0.8
2017-Feb-24 17:33N 40°39' W 074°03'6 6.3
2017-Feb-24 16:33N 40°38' W 074°12'2 2.1
2017-Feb-24 15:33N 40°39' W 074°09'1 0.6
2017-Feb-24 14:08N 40°38' W 074°08'0 0.0
2017-Feb-24 13:32N 40°38' W 074°08'0 0.0
2017-Feb-24 12:33N 40°38' W 074°08'0 0.0
2017-Feb-24 11:29N 40°38' W 074°08'0 0.0
2017-Feb-24 10:33N 40°38' W 074°08'0 0.0
2017-Feb-24 09:23N 40°38' W 074°08'0 0.0
2017-Feb-24 08:33N 40°38' W 074°08'0 0.0
2017-Feb-24 07:34N 40°38' W 074°08'0 0.0
2017-Feb-24 06:33N 40°38' W 074°08'0 0.0
2017-Feb-24 05:32N 40°38' W 074°08'0 0.0
2017-Feb-24 04:33N 40°38' W 074°08'0 0.0
2017-Feb-24 03:34N 40°38' W 074°08'0 0.0
2017-Feb-24 02:33N 40°38' W 074°08'0 0.0
2017-Feb-24 01:33N 40°38' W 074°08'0 0.0
2017-Feb-24 00:33N 40°38' W 074°08'0 0.0
2017-Feb-23 23:33N 40°38' W 074°08'2 2.0
2017-Feb-23 22:34N 40°40' W 074°08'2 2.3
2017-Feb-23 21:33N 40°39' W 074°06'1 1.1
2017-Feb-23 20:33N 40°39' W 074°07'2 2.3
2017-Feb-23 19:33N 40°39' W 074°11'5 5.0
2017-Feb-23 18:33N 40°39' W 074°04'1 0.9
2017-Feb-23 17:33N 40°39' W 074°05'3 2.5
2017-Feb-23 16:31N 40°38' W 074°08'0 0.0
2017-Feb-23 15:33N 40°38' W 074°08'0 0.0
2017-Feb-23 14:34N 40°38' W 074°08'0 0.0
2017-Feb-23 13:34N 40°38' W 074°08'0 0.0
2017-Feb-23 12:34N 40°38' W 074°08'0 0.0
2017-Feb-23 11:33N 40°38' W 074°08'0 0.0
2017-Feb-23 10:34N 40°38' W 074°08'0 0.0
2017-Feb-23 09:34N 40°38' W 074°08'1 1.1
2017-Feb-23 08:32N 40°39' W 074°09'1 1.1
2017-Feb-23 07:33N 40°40' W 074°09'0 0.2
2017-Feb-23 06:33N 40°40' W 074°09'2 2.5
2017-Feb-23 05:34N 40°39' W 074°06'2 1.6
2017-Feb-23 04:34N 40°38' W 074°08'4 3.7
2017-Feb-23 03:33N 40°37' W 074°03'0 0.4
2017-Feb-23 02:33N 40°37' W 074°03'3 2.9
2017-Feb-23 01:33N 40°39' W 074°07'1 0.7
2017-Feb-23 00:33N 40°38' W 074°08'0 0.0
2017-Feb-22 23:33N 40°38' W 074°08'0 0.0
2017-Feb-22 22:33N 40°38' W 074°08'0 0.0
2017-Feb-22 21:33N 40°38' W 074°08'0 0.0
2017-Feb-22 20:33N 40°38' W 074°08'3 2.6
2017-Feb-22 19:33N 40°41' W 074°08'1 0.5
2017-Feb-22 18:33N 40°42' W 074°08'3 2.9
2017-Feb-22 17:33N 40°39' W 074°09'1 0.9
2017-Feb-22 16:33N 40°38' W 074°08'1 0.6
2017-Feb-22 15:33N 40°39' W 074°08'2 2.1
2017-Feb-22 14:32N 40°41' W 074°09'0 0.0
2017-Feb-22 13:32N 40°41' W 074°09'0 0.3
2017-Feb-22 12:33N 40°41' W 074°08'2 2.2
2017-Feb-22 11:34N 40°39' W 074°10'4 4.0
2017-Feb-22 10:34N 40°35' W 074°12'4 3.3
2017-Feb-22 09:25N 40°32' W 074°15'0 0.1
2017-Feb-22 08:31N 40°32' W 074°15'1 1.5
2017-Feb-22 07:33N 40°33' W 074°14'5 5.4
2017-Feb-22 06:33N 40°38' W 074°12'0 0.0
2017-Feb-22 05:34N 40°38' W 074°12'5 2.2
2017-Feb-22 03:29N 40°34' W 074°13'6 6.5
2017-Feb-22 02:33N 40°38' W 074°08'0 0.0
2017-Feb-22 01:33N 40°38' W 074°08'0 0.0
2017-Feb-22 00:33N 40°38' W 074°08'1 1.1
2017-Feb-21 23:34N 40°39' W 074°09'1 1.0
2017-Feb-21 22:34N 40°40' W 074°08'5 4.8
2017-Feb-21 21:33N 40°37' W 074°03'5 5.3
2017-Feb-21 20:33N 40°38' W 074°10'2 1.6
2017-Feb-21 19:33N 40°38' W 074°08'0 0.0
2017-Feb-21 18:33N 40°38' W 074°08'3 3.4
2017-Feb-21 17:33N 40°38' W 074°12'3 3.3
2017-Feb-21 16:33N 40°39' W 074°08'2 1.5
2017-Feb-21 15:33N 40°39' W 074°10'0 0.0
2017-Feb-21 14:33N 40°39' W 074°10'0 0.5
2017-Feb-21 13:33N 40°38' W 074°09'1 0.5
2017-Feb-21 12:34N 40°39' W 074°09'4 3.6
2017-Feb-21 11:34N 40°39' W 074°04'4 3.7
2017-Feb-21 10:34N 40°40' W 074°08'1 1.3
2017-Feb-21 09:33N 40°39' W 074°09'1 1.0
2017-Feb-21 08:33N 40°38' W 074°08'0 0.0
2017-Feb-21 07:34N 40°38' W 074°08'0 0.0
2017-Feb-21 06:34N 40°38' W 074°08'0 0.0
2017-Feb-21 05:33N 40°38' W 074°08'0 0.0
2017-Feb-21 04:34N 40°38' W 074°08'0 0.0
2017-Feb-21 03:33N 40°38' W 074°08'0 0.0
2017-Feb-21 02:34N 40°38' W 074°08'0 0.0
2017-Feb-21 01:34N 40°38' W 074°08'0 0.0
2017-Feb-21 00:34N 40°38' W 074°08'0 0.0
2017-Feb-20 23:34N 40°38' W 074°08'0 0.0
2017-Feb-20 22:34N 40°38' W 074°08'0 0.0
2017-Feb-20 21:33N 40°38' W 074°08'0 0.0
2017-Feb-20 20:34N 40°38' W 074°08'0 0.0
2017-Feb-20 19:34N 40°38' W 074°08'0 0.0
2017-Feb-20 18:34N 40°38' W 074°08'2 1.9
2017-Feb-20 17:34N 40°40' W 074°08'2 1.9
2017-Feb-20 16:34N 40°38' W 074°08'0 0.0
2017-Feb-20 15:34N 40°38' W 074°08'0 0.0
2017-Feb-20 14:33N 40°38' W 074°08'0 0.0
2017-Feb-20 13:34N 40°38' W 074°08'0 0.0
2017-Feb-20 12:34N 40°38' W 074°08'0 0.0
2017-Feb-20 11:33N 40°38' W 074°08'1 1.3
2017-Feb-20 10:33N 40°39' W 074°09'2 2.2
2017-Feb-20 09:33N 40°38' W 074°12'6 5.8
2017-Feb-20 08:34N 40°39' W 074°05'2 1.7
2017-Feb-20 07:34N 40°39' W 074°07'1 0.7
2017-Feb-20 06:34N 40°38' W 074°08'0 0.0
2017-Feb-20 05:34N 40°38' W 074°08'0 0.0
2017-Feb-20 04:34N 40°38' W 074°08'0 0.0
2017-Feb-20 03:33N 40°38' W 074°08'0 0.0
2017-Feb-20 02:33N 40°38' W 074°08'0 0.0
2017-Feb-20 01:34N 40°38' W 074°08'0 0.0
2017-Feb-20 00:34N 40°38' W 074°08'4 3.7
2017-Feb-19 23:33N 40°37' W 074°12'4 2.8
2017-Feb-19 22:08N 40°33' W 074°15'1 1.3
2017-Feb-19 21:13N 40°32' W 074°15'4 2.1
2017-Feb-19 19:33N 40°35' W 074°12'5 4.8
2017-Feb-19 18:33N 40°38' W 074°08'0 0.5
2017-Feb-19 17:34N 40°39' W 074°07'4 4.4
2017-Feb-19 16:34N 40°41' W 074°02'7 7.1
2017-Feb-19 15:34N 40°47' W 073°56'2 2.4
2017-Feb-19 14:34N 40°48' W 073°54'8 8.1
2017-Feb-19 13:34N 40°42' W 074°00'6 6.4
2017-Feb-19 12:33N 40°38' W 074°08'0 0.0
2017-Feb-19 11:33N 40°38' W 074°08'0 0.0
2017-Feb-19 10:33N 40°38' W 074°08'0 0.0
2017-Feb-19 09:33N 40°38' W 074°08'0 0.0
2017-Feb-19 08:34N 40°38' W 074°08'0 0.0
2017-Feb-19 07:33N 40°38' W 074°08'0 0.0
2017-Feb-19 06:33N 40°38' W 074°08'0 0.0
2017-Feb-19 05:33N 40°38' W 074°08'2 2.2
2017-Feb-19 04:34N 40°39' W 074°05'9 9.2
2017-Feb-19 03:32N 40°46' W 073°57'3 2.8
2017-Feb-19 02:33N 40°48' W 073°54'5 5.5
2017-Feb-19 01:34N 40°43' W 073°58'6 6.0
2017-Feb-19 00:34N 40°39' W 074°03'7 6.7
2017-Feb-18 23:33N 40°38' W 074°12'5 5.3
2017-Feb-18 22:32N 40°33' W 074°15'0 0.2
2017-Feb-18 21:33N 40°33' W 074°15'7 7.0
2017-Feb-18 20:34N 40°39' W 074°10'2 2.0
2017-Feb-18 19:33N 40°38' W 074°08'1 0.7
2017-Feb-18 18:32N 40°39' W 074°07'2 2.0
2017-Feb-18 17:34N 40°39' W 074°04'3 2.5
2017-Feb-18 16:33N 40°38' W 074°08'0 0.0
2017-Feb-18 15:33N 40°38' W 074°08'0 0.0
2017-Feb-18 13:32N 40°38' W 074°08'0 0.0
2017-Feb-18 12:33N 40°38' W 074°08'0 0.0
2017-Feb-18 11:33N 40°38' W 074°08'0 0.0
2017-Feb-18 10:33N 40°38' W 074°08'0 0.0
2017-Feb-18 09:33N 40°38' W 074°08'0 0.0
2017-Feb-18 08:33N 40°38' W 074°08'0 0.0
2017-Feb-18 07:33N 40°38' W 074°08'4 3.7
2017-Feb-18 06:33N 40°37' W 074°12'5 4.6
2017-Feb-18 05:32N 40°33' W 074°15'3 3.4
2017-Feb-18 04:33N 40°36' W 074°12'5 5.2
2017-Feb-18 03:33N 40°39' W 074°07'2 2.1
2017-Feb-18 02:33N 40°40' W 074°04'3 2.8
2017-Feb-18 01:33N 40°38' W 074°08'0 0.0
2017-Feb-18 00:32N 40°38' W 074°08'0 0.0
2017-Feb-17 23:32N 40°38' W 074°08'0 0.0
2017-Feb-17 22:32N 40°38' W 074°08'0 0.0
2017-Feb-17 21:32N 40°38' W 074°08'0 0.0
2017-Feb-17 20:29N 40°38' W 074°08'0 0.0
2017-Feb-17 19:29N 40°38' W 074°08'0 0.1
2017-Feb-17 18:31N 40°38' W 074°08'0 0.0
2017-Feb-17 17:31N 40°38' W 074°08'0 0.0
2017-Feb-17 16:31N 40°38' W 074°08'3 3.1
2017-Feb-17 15:33N 40°41' W 074°08'1 0.7
2017-Feb-17 14:33N 40°41' W 074°08'2 2.3
2017-Feb-17 13:33N 40°39' W 074°09'1 0.9
2017-Feb-17 12:33N 40°38' W 074°08'0 0.0
2017-Feb-17 11:33N 40°38' W 074°08'0 0.0
2017-Feb-17 10:33N 40°38' W 074°08'0 0.0
2017-Feb-17 09:33N 40°38' W 074°08'2 1.8
2017-Feb-17 08:33N 40°39' W 074°05'0 0.4
2017-Feb-17 07:33N 40°39' W 074°06'4 3.8
2017-Feb-17 06:34N 40°43' W 074°07'3 2.7
2017-Feb-17 05:33N 40°40' W 074°08'2 1.5
2017-Feb-17 04:33N 40°38' W 074°08'0 0.0
2017-Feb-17 03:33N 40°38' W 074°08'0 0.0
2017-Feb-17 02:33N 40°38' W 074°08'0 0.0
2017-Feb-17 01:33N 40°38' W 074°08'0 0.0
2017-Feb-17 00:33N 40°38' W 074°08'0 0.0
2017-Feb-16 23:33N 40°38' W 074°08'0 0.0
2017-Feb-16 22:33N 40°38' W 074°08'0 0.0
2017-Feb-16 21:32N 40°38' W 074°08'0 0.0
2017-Feb-16 20:33N 40°38' W 074°08'0 0.0
2017-Feb-16 19:33N 40°38' W 074°08'0 0.0
2017-Feb-16 18:33N 40°38' W 074°08'4 4.4
2017-Feb-16 17:33N 40°43' W 074°07'2 1.8
2017-Feb-16 16:33N 40°41' W 074°08'3 2.4
2017-Feb-16 15:29N 40°38' W 074°08'0 0.0
2017-Feb-16 14:32N 40°38' W 074°08'0 0.0
2017-Feb-16 13:32N 40°38' W 074°08'0 0.0
2017-Feb-16 12:08N 40°38' W 074°08'0 0.0
2017-Feb-16 11:32N 40°38' W 074°08'0 0.0
2017-Feb-16 09:32N 40°38' W 074°08'0 0.0
2017-Feb-16 08:08N 40°38' W 074°08'0 0.0
2017-Feb-16 07:32N 40°38' W 074°08'0 0.0
2017-Feb-16 06:32N 40°38' W 074°08'0 0.0
2017-Feb-16 05:32N 40°38' W 074°08'0 0.0
2017-Feb-16 04:32N 40°38' W 074°08'0 0.0
2017-Feb-16 03:32N 40°38' W 074°08'0 0.0
2017-Feb-16 02:32N 40°38' W 074°08'0 0.0
2017-Feb-16 01:32N 40°38' W 074°08'0 0.0
2017-Feb-16 00:31N 40°38' W 074°08'1 0.8
2017-Feb-15 23:34N 40°39' W 074°09'1 0.8
2017-Feb-15 22:34N 40°39' W 074°10'2 1.5
2017-Feb-15 21:33N 40°38' W 074°08'0 0.0
2017-Feb-15 20:33N 40°38' W 074°08'0 0.0
2017-Feb-15 19:33N 40°38' W 074°08'0 0.0
2017-Feb-15 18:34N 40°38' W 074°08'0 0.0
2017-Feb-15 17:33N 40°38' W 074°08'0 0.0
2017-Feb-15 16:34N 40°38' W 074°08'0 0.0
2017-Feb-15 15:33N 40°38' W 074°08'0 0.0
2017-Feb-15 14:33N 40°38' W 074°08'  
Track history (hours):
 
Tides and Currents Weather Stations Pressure Air Temp Water Temp Dewpoint Dewpoint Depression Visibility Wind Speed Wind Dir Waves Ship Positions

Kimberly Turecamo

Owner: Moran Towing Corporation, New Canaan, CT. More information available from US FCC via Universal Licensing System and Coast Guard Vessel Documentation Center.

Last reported at 2017-Feb-25 13:33 UTC. Time now 2017-Feb-25 13:48 UTC.
Position N 40°37' W 074°03'.

Length 138 m; draft 5 m.

Type: . MMSI: 367061980.

Date/timePositionNaut miles runAvg speedWind from/ knotsBaromVisibWave heightAir tempDewpointWater temp
2017-Feb-25 13:33N 40°37' W 074°03'0 0.0
2017-Feb-25 12:32N 40°37' W 074°03'0 0.0
2017-Feb-25 11:33N 40°37' W 074°03'0 0.0
2017-Feb-25 10:33N 40°37' W 074°03'1 0.6
2017-Feb-25 09:33N 40°37' W 074°03'2 1.9
2017-Feb-25 08:33N 40°39' W 074°02'0 0.0
2017-Feb-25 07:31N 40°39' W 074°02'0 0.0
2017-Feb-25 06:31N 40°39' W 074°02'0 0.0
2017-Feb-25 05:31N 40°39' W 074°02'0 0.0
2017-Feb-25 04:31N 40°39' W 074°02'0 0.0
2017-Feb-25 03:31N 40°39' W 074°02'0 0.0
2017-Feb-25 02:31N 40°39' W 074°02'0 0.1
2017-Feb-25 01:31N 40°39' W 074°02'0 0.1
2017-Feb-25 00:31N 40°39' W 074°02'0 0.0
2017-Feb-24 23:31N 40°39' W 074°02'0 0.0
2017-Feb-24 22:31N 40°39' W 074°02'0 0.0
2017-Feb-24 21:31N 40°39' W 074°02'0 0.2
2017-Feb-24 20:31N 40°39' W 074°02'0 0.0
2017-Feb-24 19:31N 40°39' W 074°02'0 0.0
2017-Feb-24 18:31N 40°39' W 074°02'1 0.8
2017-Feb-24 17:33N 40°39' W 074°03'6 6.3
2017-Feb-24 16:33N 40°38' W 074°12'2 2.1
2017-Feb-24 15:33N 40°39' W 074°09'1 0.6
2017-Feb-24 14:08N 40°38' W 074°08'0 0.0
2017-Feb-24 13:32N 40°38' W 074°08'0 0.0
2017-Feb-24 12:33N 40°38' W 074°08'0 0.0
2017-Feb-24 11:29N 40°38' W 074°08'0 0.0
2017-Feb-24 10:33N 40°38' W 074°08'0 0.0
2017-Feb-24 09:23N 40°38' W 074°08'0 0.0
2017-Feb-24 08:33N 40°38' W 074°08'0 0.0
2017-Feb-24 07:34N 40°38' W 074°08'0 0.0
2017-Feb-24 06:33N 40°38' W 074°08'0 0.0
2017-Feb-24 05:32N 40°38' W 074°08'0 0.0
2017-Feb-24 04:33N 40°38' W 074°08'0 0.0
2017-Feb-24 03:34N 40°38' W 074°08'0 0.0
2017-Feb-24 02:33N 40°38' W 074°08'0 0.0
2017-Feb-24 01:33N 40°38' W 074°08'0 0.0
2017-Feb-24 00:33N 40°38' W 074°08'0 0.0
2017-Feb-23 23:33N 40°38' W 074°08'2 2.0
2017-Feb-23 22:34N 40°40' W 074°08'2 2.3
2017-Feb-23 21:33N 40°39' W 074°06'1 1.1
2017-Feb-23 20:33N 40°39' W 074°07'2 2.3
2017-Feb-23 19:33N 40°39' W 074°11'5 5.0
2017-Feb-23 18:33N 40°39' W 074°04'1 0.9
2017-Feb-23 17:33N 40°39' W 074°05'3 2.5
2017-Feb-23 16:31N 40°38' W 074°08'0 0.0
2017-Feb-23 15:33N 40°38' W 074°08'0 0.0
2017-Feb-23 14:34N 40°38' W 074°08'0 0.0
2017-Feb-23 13:34N 40°38' W 074°08'0 0.0
2017-Feb-23 12:34N 40°38' W 074°08'0 0.0
2017-Feb-23 11:33N 40°38' W 074°08'0 0.0
2017-Feb-23 10:34N 40°38' W 074°08'0 0.0
2017-Feb-23 09:34N 40°38' W 074°08'1 1.1
2017-Feb-23 08:32N 40°39' W 074°09'1 1.1
2017-Feb-23 07:33N 40°40' W 074°09'0 0.2
2017-Feb-23 06:33N 40°40' W 074°09'2 2.5
2017-Feb-23 05:34N 40°39' W 074°06'2 1.6
2017-Feb-23 04:34N 40°38' W 074°08'4 3.7
2017-Feb-23 03:33N 40°37' W 074°03'0 0.4
2017-Feb-23 02:33N 40°37' W 074°03'3 2.9
2017-Feb-23 01:33N 40°39' W 074°07'1 0.7
2017-Feb-23 00:33N 40°38' W 074°08'0 0.0
2017-Feb-22 23:33N 40°38' W 074°08'0 0.0
2017-Feb-22 22:33N 40°38' W 074°08'0 0.0
2017-Feb-22 21:33N 40°38' W 074°08'0 0.0
2017-Feb-22 20:33N 40°38' W 074°08'3 2.6
2017-Feb-22 19:33N 40°41' W 074°08'1 0.5
2017-Feb-22 18:33N 40°42' W 074°08'3 2.9
2017-Feb-22 17:33N 40°39' W 074°09'1 0.9
2017-Feb-22 16:33N 40°38' W 074°08'1 0.6
2017-Feb-22 15:33N 40°39' W 074°08'2 2.1
2017-Feb-22 14:32N 40°41' W 074°09'0 0.0
2017-Feb-22 13:32N 40°41' W 074°09'0 0.3
2017-Feb-22 12:33N 40°41' W 074°08'2 2.2
2017-Feb-22 11:34N 40°39' W 074°10'4 4.0
2017-Feb-22 10:34N 40°35' W 074°12'4 3.3
2017-Feb-22 09:25N 40°32' W 074°15'0 0.1
2017-Feb-22 08:31N 40°32' W 074°15'1 1.5
2017-Feb-22 07:33N 40°33' W 074°14'5 5.4
2017-Feb-22 06:33N 40°38' W 074°12'0 0.0
2017-Feb-22 05:34N 40°38' W 074°12'5 2.2
2017-Feb-22 03:29N 40°34' W 074°13'6 6.5
2017-Feb-22 02:33N 40°38' W 074°08'0 0.0
2017-Feb-22 01:33N 40°38' W 074°08'0 0.0
2017-Feb-22 00:33N 40°38' W 074°08'1 1.1
2017-Feb-21 23:34N 40°39' W 074°09'1 1.0
2017-Feb-21 22:34N 40°40' W 074°08'5 4.8
2017-Feb-21 21:33N 40°37' W 074°03'5 5.3
2017-Feb-21 20:33N 40°38' W 074°10'2 1.6
2017-Feb-21 19:33N 40°38' W 074°08'0 0.0
2017-Feb-21 18:33N 40°38' W 074°08'3 3.4
2017-Feb-21 17:33N 40°38' W 074°12'3 3.3
2017-Feb-21 16:33N 40°39' W 074°08'2 1.5
2017-Feb-21 15:33N 40°39' W 074°10'0 0.0
2017-Feb-21 14:33N 40°39' W 074°10'0 0.5
2017-Feb-21 13:33N 40°38' W 074°09'1 0.5
2017-Feb-21 12:34N 40°39' W 074°09'4 3.6
2017-Feb-21 11:34N 40°39' W 074°04'4 3.7
2017-Feb-21 10:34N 40°40' W 074°08'1 1.3
2017-Feb-21 09:33N 40°39' W 074°09'1 1.0
2017-Feb-21 08:33N 40°38' W 074°08'0 0.0
2017-Feb-21 07:34N 40°38' W 074°08'0 0.0
2017-Feb-21 06:34N 40°38' W 074°08'0 0.0
2017-Feb-21 05:33N 40°38' W 074°08'0 0.0
2017-Feb-21 04:34N 40°38' W 074°08'0 0.0
2017-Feb-21 03:33N 40°38' W 074°08'0 0.0
2017-Feb-21 02:34N 40°38' W 074°08'0 0.0
2017-Feb-21 01:34N 40°38' W 074°08'0 0.0
2017-Feb-21 00:34N 40°38' W 074°08'0 0.0
2017-Feb-20 23:34N 40°38' W 074°08'0 0.0
2017-Feb-20 22:34N 40°38' W 074°08'0 0.0
2017-Feb-20 21:33N 40°38' W 074°08'0 0.0
2017-Feb-20 20:34N 40°38' W 074°08'0 0.0
2017-Feb-20 19:34N 40°38' W 074°08'0 0.0
2017-Feb-20 18:34N 40°38' W 074°08'2 1.9
2017-Feb-20 17:34N 40°40' W 074°08'2 1.9
2017-Feb-20 16:34N 40°38' W 074°08'0 0.0
2017-Feb-20 15:34N 40°38' W 074°08'0 0.0
2017-Feb-20 14:33N 40°38' W 074°08'0 0.0
2017-Feb-20 13:34N 40°38' W 074°08'0 0.0
2017-Feb-20 12:34N 40°38' W 074°08'0 0.0
2017-Feb-20 11:33N 40°38' W 074°08'1 1.3
2017-Feb-20 10:33N 40°39' W 074°09'2 2.2
2017-Feb-20 09:33N 40°38' W 074°12'6 5.8
2017-Feb-20 08:34N 40°39' W 074°05'2 1.7
2017-Feb-20 07:34N 40°39' W 074°07'1 0.7
2017-Feb-20 06:34N 40°38' W 074°08'0 0.0
2017-Feb-20 05:34N 40°38' W 074°08'0 0.0
2017-Feb-20 04:34N 40°38' W 074°08'0 0.0
2017-Feb-20 03:33N 40°38' W 074°08'0 0.0
2017-Feb-20 02:33N 40°38' W 074°08'0 0.0
2017-Feb-20 01:34N 40°38' W 074°08'0 0.0
2017-Feb-20 00:34N 40°38' W 074°08'4 3.7
2017-Feb-19 23:33N 40°37' W 074°12'4 2.8
2017-Feb-19 22:08N 40°33' W 074°15'1 1.3
2017-Feb-19 21:13N 40°32' W 074°15'4 2.1
2017-Feb-19 19:33N 40°35' W 074°12'5 4.8
2017-Feb-19 18:33N 40°38' W 074°08'0 0.5
2017-Feb-19 17:34N 40°39' W 074°07'4 4.4
2017-Feb-19 16:34N 40°41' W 074°02'7 7.1
2017-Feb-19 15:34N 40°47' W 073°56'2 2.4
2017-Feb-19 14:34N 40°48' W 073°54'8 8.1
2017-Feb-19 13:34N 40°42' W 074°00'6 6.4
2017-Feb-19 12:33N 40°38' W 074°08'0 0.0
2017-Feb-19 11:33N 40°38' W 074°08'0 0.0
2017-Feb-19 10:33N 40°38' W 074°08'0 0.0
2017-Feb-19 09:33N 40°38' W 074°08'0 0.0
2017-Feb-19 08:34N 40°38' W 074°08'0 0.0
2017-Feb-19 07:33N 40°38' W 074°08'0 0.0
2017-Feb-19 06:33N 40°38' W 074°08'0 0.0
2017-Feb-19 05:33N 40°38' W 074°08'2 2.2
2017-Feb-19 04:34N 40°39' W 074°05'9 9.2
2017-Feb-19 03:32N 40°46' W 073°57'3 2.8
2017-Feb-19 02:33N 40°48' W 073°54'5 5.5
2017-Feb-19 01:34N 40°43' W 073°58'6 6.0
2017-Feb-19 00:34N 40°39' W 074°03'7 6.7
2017-Feb-18 23:33N 40°38' W 074°12'5 5.3
2017-Feb-18 22:32N 40°33' W 074°15'0 0.2
2017-Feb-18 21:33N 40°33' W 074°15'7 7.0
2017-Feb-18 20:34N 40°39' W 074°10'2 2.0
2017-Feb-18 19:33N 40°38' W 074°08'1 0.7
2017-Feb-18 18:32N 40°39' W 074°07'2 2.0
2017-Feb-18 17:34N 40°39' W 074°04'3 2.5
2017-Feb-18 16:33N 40°38' W 074°08'0 0.0
2017-Feb-18 15:33N 40°38' W 074°08'0 0.0
2017-Feb-18 13:32N 40°38' W 074°08'0 0.0
2017-Feb-18 12:33N 40°38' W 074°08'0 0.0
2017-Feb-18 11:33N 40°38' W 074°08'0 0.0
2017-Feb-18 10:33N 40°38' W 074°08'0 0.0
2017-Feb-18 09:33N 40°38' W 074°08'0 0.0
2017-Feb-18 08:33N 40°38' W 074°08'0 0.0
2017-Feb-18 07:33N 40°38' W 074°08'4 3.7
2017-Feb-18 06:33N 40°37' W 074°12'5 4.6
2017-Feb-18 05:32N 40°33' W 074°15'3 3.4
2017-Feb-18 04:33N 40°36' W 074°12'5 5.2
2017-Feb-18 03:33N 40°39' W 074°07'2 2.1
2017-Feb-18 02:33N 40°40' W 074°04'3 2.8
2017-Feb-18 01:33N 40°38' W 074°08'0 0.0
2017-Feb-18 00:32N 40°38' W 074°08'0 0.0
2017-Feb-17 23:32N 40°38' W 074°08'0 0.0
2017-Feb-17 22:32N 40°38' W 074°08'0 0.0
2017-Feb-17 21:32N 40°38' W 074°08'0 0.0
2017-Feb-17 20:29N 40°38' W 074°08'0 0.0
2017-Feb-17 19:29N 40°38' W 074°08'0 0.1
2017-Feb-17 18:31N 40°38' W 074°08'0 0.0
2017-Feb-17 17:31N 40°38' W 074°08'0 0.0
2017-Feb-17 16:31N 40°38' W 074°08'3 3.1
2017-Feb-17 15:33N 40°41' W 074°08'1 0.7
2017-Feb-17 14:33N 40°41' W 074°08'2 2.3
2017-Feb-17 13:33N 40°39' W 074°09'1 0.9
2017-Feb-17 12:33N 40°38' W 074°08'0 0.0
2017-Feb-17 11:33N 40°38' W 074°08'0 0.0
2017-Feb-17 10:33N 40°38' W 074°08'0 0.0
2017-Feb-17 09:33N 40°38' W 074°08'2 1.8
2017-Feb-17 08:33N 40°39' W 074°05'0 0.4
2017-Feb-17 07:33N 40°39' W 074°06'4 3.8
2017-Feb-17 06:34N 40°43' W 074°07'3 2.7
2017-Feb-17 05:33N 40°40' W 074°08'2 1.5
2017-Feb-17 04:33N 40°38' W 074°08'0 0.0
2017-Feb-17 03:33N 40°38' W 074°08'0 0.0
2017-Feb-17 02:33N 40°38' W 074°08'0 0.0
2017-Feb-17 01:33N 40°38' W 074°08'0 0.0
2017-Feb-17 00:33N 40°38' W 074°08'0 0.0
2017-Feb-16 23:33N 40°38' W 074°08'0 0.0
2017-Feb-16 22:33N 40°38' W 074°08'0 0.0
2017-Feb-16 21:32N 40°38' W 074°08'0 0.0
2017-Feb-16 20:33N 40°38' W 074°08'0 0.0
2017-Feb-16 19:33N 40°38' W 074°08'0 0.0
2017-Feb-16 18:33N 40°38' W 074°08'4 4.4
2017-Feb-16 17:33N 40°43' W 074°07'2 1.8
2017-Feb-16 16:33N 40°41' W 074°08'3 2.4
2017-Feb-16 15:29N 40°38' W 074°08'0 0.0
2017-Feb-16 14:32N 40°38' W 074°08'0 0.0
2017-Feb-16 13:32N 40°38' W 074°08'0 0.0
2017-Feb-16 12:08N 40°38' W 074°08'0 0.0
2017-Feb-16 11:32N 40°38' W 074°08'0 0.0
2017-Feb-16 09:32N 40°38' W 074°08'0 0.0
2017-Feb-16 08:08N 40°38' W 074°08'0 0.0
2017-Feb-16 07:32N 40°38' W 074°08'0 0.0
2017-Feb-16 06:32N 40°38' W 074°08'0 0.0
2017-Feb-16 05:32N 40°38' W 074°08'0 0.0
2017-Feb-16 04:32N 40°38' W 074°08'0 0.0
2017-Feb-16 03:32N 40°38' W 074°08'0 0.0
2017-Feb-16 02:32N 40°38' W 074°08'0 0.0
2017-Feb-16 01:32N 40°38' W 074°08'0 0.0
2017-Feb-16 00:31N 40°38' W 074°08'1 0.8
2017-Feb-15 23:34N 40°39' W 074°09'1 0.8
2017-Feb-15 22:34N 40°39' W 074°10'2 1.5
2017-Feb-15 21:33N 40°38' W 074°08'0 0.0
2017-Feb-15 20:33N 40°38' W 074°08'0 0.0
2017-Feb-15 19:33N 40°38' W 074°08'0 0.0
2017-Feb-15 18:34N 40°38' W 074°08'0 0.0
2017-Feb-15 17:33N 40°38' W 074°08'0 0.0
2017-Feb-15 16:34N 40°38' W 074°08'0 0.0
2017-Feb-15 15:33N 40°38' W 074°08'0 0.0
2017-Feb-15 14:33N 40°38' W 074°08'  

Dump ship's entire track history